createdAt,value
2019-01-30T00:02:09.155Z,12.87
2019-01-30T00:04:38.666Z,15.30
2019-01-30T00:07:08.084Z,15.77
2019-01-30T00:09:37.552Z,15.00
2019-01-30T00:12:07.006Z,11.53
2019-01-30T00:14:36.384Z,14.13
2019-01-30T00:17:05.854Z,14.03
2019-01-30T00:19:35.765Z,14.40
2019-01-30T00:22:06.216Z,11.97
2019-01-30T00:24:35.664Z,12.83
2019-01-30T00:27:05.122Z,14.37
2019-01-30T00:29:34.528Z,13.93
2019-01-30T00:32:04.213Z,13.40
2019-01-30T00:34:33.668Z,13.23
2019-01-30T00:37:03.118Z,15.97
2019-01-30T00:39:32.563Z,13.40
2019-01-30T00:42:01.927Z,15.00
2019-01-30T00:44:31.739Z,14.97
2019-01-30T00:47:01.188Z,14.97
2019-01-30T00:49:30.546Z,13.00
2019-01-30T00:51:59.991Z,15.83
2019-01-30T00:54:32.138Z,13.33
2019-01-30T00:57:00.613Z,15.37
2019-01-30T00:59:30.502Z,15.83
2019-01-30T01:01:59.888Z,15.97
2019-01-30T01:04:29.267Z,14.50
2019-01-30T01:06:58.650Z,14.27
2019-01-30T01:09:28.532Z,15.27
2019-01-30T01:11:58.014Z,16.20
2019-01-30T01:14:27.426Z,13.70
2019-01-30T01:16:57.365Z,14.03
2019-01-30T01:19:26.845Z,17.40
2019-01-30T01:21:56.448Z,13.47
2019-01-30T01:24:26.276Z,13.87
2019-01-30T01:26:55.847Z,15.00
2019-01-30T01:29:25.321Z,18.20
2019-01-30T01:31:54.840Z,13.77
2019-01-30T01:34:24.296Z,17.10
2019-01-30T01:36:53.917Z,17.30
2019-01-30T01:39:23.679Z,16.33
2019-01-30T01:41:53.289Z,14.50
2019-01-30T01:44:22.709Z,16.10
2019-01-30T01:46:52.119Z,16.60
2019-01-30T01:49:21.549Z,14.77
2019-01-30T01:51:51.157Z,17.17
2019-01-30T01:54:20.672Z,16.70
2019-01-30T01:56:50.118Z,15.13
2019-01-30T01:59:19.918Z,16.57
2019-01-30T02:01:49.348Z,13.70
2019-01-30T02:04:18.795Z,17.17
2019-01-30T02:06:48.285Z,17.23
2019-01-30T02:09:18.110Z,16.83
2019-01-30T02:11:47.538Z,19.03
2019-01-30T02:14:16.933Z,17.83
2019-01-30T02:16:46.377Z,18.83
2019-01-30T02:19:15.801Z,17.60
2019-01-30T02:21:45.600Z,18.63
2019-01-30T02:24:15.052Z,17.63
2019-01-30T02:26:44.614Z,17.10
2019-01-30T02:29:14.244Z,20.70
2019-01-30T02:31:43.666Z,15.40
2019-01-30T02:34:13.090Z,17.90
2019-01-30T02:36:58.618Z,16.40
2019-01-30T02:39:28.420Z,16.83
2019-01-30T02:41:57.977Z,17.53
2019-01-30T02:44:27.434Z,17.03
2019-01-30T02:46:56.832Z,18.07
2019-01-30T02:49:26.291Z,15.27
2019-01-30T02:51:55.731Z,17.10
2019-01-30T02:54:25.177Z,15.27
2019-01-30T02:56:54.520Z,14.67
2019-01-30T02:59:24.044Z,17.90
2019-01-30T03:01:58.885Z,17.40
2019-01-30T03:04:28.320Z,16.20
2019-01-30T03:06:57.757Z,15.47
2019-01-30T03:09:27.218Z,18.20
2019-01-30T03:11:56.561Z,16.80
2019-01-30T03:14:26.412Z,14.27
2019-01-30T03:16:55.851Z,15.10
2019-01-30T03:19:25.345Z,16.97
2019-01-30T03:21:54.740Z,15.33
2019-01-30T03:24:24.267Z,12.83
2019-01-30T03:26:53.698Z,15.50
2019-01-30T03:29:23.141Z,13.87
2019-01-30T03:31:52.636Z,14.23
2019-01-30T03:34:22.058Z,16.27
2019-01-30T03:36:51.436Z,15.30
2019-01-30T03:39:20.912Z,17.70
2019-01-30T03:41:50.427Z,16.73
2019-01-30T03:44:19.814Z,13.70
2019-01-30T03:46:49.236Z,16.77
2019-01-30T03:49:19.047Z,12.77
2019-01-30T03:51:48.975Z,11.90
2019-01-30T03:54:18.416Z,13.87
2019-01-30T03:56:47.942Z,17.07
2019-01-30T03:59:17.409Z,12.00
2019-01-30T04:01:46.882Z,15.73
2019-01-30T04:04:16.362Z,13.50
2019-01-30T04:06:45.762Z,11.60
2019-01-30T04:09:15.141Z,17.20
2019-01-30T04:11:45.120Z,12.80
2019-01-30T04:14:14.624Z,14.13
2019-01-30T04:16:44.260Z,19.03
2019-01-30T04:19:13.696Z,13.77
2019-01-30T04:21:43.127Z,12.50
2019-01-30T04:24:12.544Z,14.97
2019-01-30T04:26:41.977Z,12.60
2019-01-30T04:29:11.931Z,13.70
2019-01-30T04:31:41.407Z,14.03
2019-01-30T04:34:10.835Z,14.73
2019-01-30T04:36:40.360Z,15.30
2019-01-30T04:39:10.462Z,12.77
2019-01-30T04:41:39.908Z,18.07
2019-01-30T04:44:09.394Z,14.37
2019-01-30T04:46:38.803Z,17.27
2019-01-30T04:49:08.274Z,13.03
2019-01-30T04:51:37.708Z,14.13
2019-01-30T04:54:07.162Z,13.43
2019-01-30T04:56:37.006Z,15.43
2019-01-30T04:59:06.372Z,15.33
2019-01-30T05:01:35.798Z,15.13
2019-01-30T05:04:05.360Z,16.53
2019-01-30T05:06:34.809Z,12.23
2019-01-30T05:09:23.316Z,15.43
2019-01-30T05:11:53.210Z,17.47
2019-01-30T05:14:22.577Z,16.57
2019-01-30T05:16:52.391Z,15.17
2019-01-30T05:19:21.821Z,12.17
2019-01-30T05:21:51.189Z,15.60
2019-01-30T05:24:20.623Z,13.63
2019-01-30T05:26:50.079Z,17.30
2019-01-30T05:29:19.510Z,14.67
2019-01-30T05:31:48.953Z,14.17
2019-01-30T05:34:18.385Z,13.70
2019-01-30T05:36:47.939Z,15.10
2019-01-30T05:39:17.409Z,14.80
2019-01-30T05:41:47.076Z,14.37
2019-01-30T05:44:16.831Z,14.60
2019-01-30T05:46:46.345Z,12.77
2019-01-30T05:49:15.908Z,14.90
2019-01-30T05:51:45.327Z,13.23
2019-01-30T05:54:14.762Z,12.93
2019-01-30T05:56:44.225Z,14.60
2019-01-30T05:59:13.669Z,13.57
2019-01-30T06:01:43.327Z,13.90
2019-01-30T06:04:12.775Z,16.30
2019-01-30T06:06:42.425Z,12.87
2019-01-30T06:09:11.778Z,15.50
2019-01-30T06:11:42.043Z,15.17
2019-01-30T06:14:11.482Z,12.80
2019-01-30T06:16:40.924Z,13.97
2019-01-30T06:19:10.409Z,12.07
2019-01-30T06:21:39.837Z,12.70
2019-01-30T06:24:09.281Z,13.93
2019-01-30T06:26:38.748Z,11.80
2019-01-30T06:29:08.539Z,13.83
2019-01-30T06:31:37.983Z,13.57
2019-01-30T06:34:08.334Z,14.53
2019-01-30T06:36:38.477Z,11.70
2019-01-30T06:39:08.800Z,14.17
2019-01-30T06:41:38.438Z,10.77
2019-01-30T06:44:07.797Z,11.90
2019-01-30T06:46:37.176Z,12.07
2019-01-30T06:49:07.171Z,14.37
2019-01-30T06:51:36.620Z,12.10
2019-01-30T06:54:25.493Z,12.13
2019-01-30T06:56:54.965Z,11.03
2019-01-30T06:59:24.427Z,12.67
2019-01-30T07:01:53.839Z,10.43
2019-01-30T07:04:23.277Z,11.83
2019-01-30T07:06:52.689Z,11.23
2019-01-30T07:09:22.070Z,13.83
2019-01-30T07:11:51.922Z,13.10
2019-01-30T07:14:21.375Z,20.10
2019-01-30T07:16:50.807Z,17.03
2019-01-30T07:19:20.543Z,13.83
2019-01-30T07:21:49.995Z,11.80
2019-01-30T07:24:19.393Z,11.97
2019-01-30T07:26:48.826Z,12.73
2019-01-30T07:29:18.340Z,13.40
2019-01-30T07:31:48.081Z,12.90
2019-01-30T07:34:17.582Z,12.37
2019-01-30T07:36:47.282Z,12.17
2019-01-30T07:39:16.769Z,15.53
2019-01-30T07:41:46.411Z,13.40
2019-01-30T07:44:15.893Z,14.77
2019-01-30T07:46:45.430Z,14.30
2019-01-30T07:49:14.935Z,13.33
2019-01-30T07:51:44.726Z,12.60
2019-01-30T07:54:14.166Z,13.87
2019-01-30T07:56:43.629Z,13.50
2019-01-30T07:59:13.066Z,12.37
2019-01-30T08:01:42.813Z,15.03
2019-01-30T08:04:12.268Z,14.47
2019-01-30T08:06:41.817Z,15.03
2019-01-30T08:09:11.227Z,16.53
2019-01-30T08:11:40.740Z,13.03
2019-01-30T08:14:10.181Z,15.40
2019-01-30T08:16:39.613Z,14.07
2019-01-30T08:19:09.041Z,13.07
2019-01-30T08:21:38.463Z,15.30
2019-01-30T08:24:08.083Z,15.30
2019-01-30T08:26:37.833Z,15.53
2019-01-30T08:29:07.837Z,15.87
2019-01-30T08:31:38.028Z,13.30
2019-01-30T08:34:07.613Z,13.97
2019-01-30T08:36:37.050Z,14.37
2019-01-30T08:39:08.621Z,11.47
2019-01-30T08:41:38.217Z,12.90
2019-01-30T08:44:07.989Z,14.53
2019-01-30T08:46:37.392Z,11.80
2019-01-30T08:49:07.064Z,11.27
2019-01-30T08:51:36.516Z,13.67
2019-01-30T08:54:06.390Z,13.40
2019-01-30T08:56:39.036Z,12.47
2019-01-30T08:59:07.095Z,13.50
2019-01-30T09:01:36.551Z,18.40
2019-01-30T09:04:06.325Z,13.60
2019-01-30T09:06:35.827Z,14.10
2019-01-30T09:09:09.162Z,14.77
2019-01-30T09:11:38.635Z,10.50
2019-01-30T09:14:08.069Z,13.27
2019-01-30T09:16:37.720Z,12.70
2019-01-30T09:19:07.205Z,12.13
2019-01-30T09:21:36.612Z,12.30
2019-01-30T09:24:06.055Z,11.53
2019-01-30T09:26:35.497Z,11.03
2019-01-30T09:29:04.873Z,12.67
2019-01-30T09:31:34.269Z,11.90
2019-01-30T09:34:03.735Z,13.50
2019-01-30T09:36:33.449Z,12.97
2019-01-30T09:39:02.887Z,15.00
2019-01-30T09:41:32.755Z,13.50
2019-01-30T09:44:02.177Z,15.07
2019-01-30T09:46:31.649Z,13.77
2019-01-30T09:49:01.100Z,13.93
2019-01-30T09:51:30.552Z,13.20
2019-01-30T09:54:00.086Z,14.03
2019-01-30T09:56:29.641Z,13.67
2019-01-30T09:58:59.031Z,14.37
2019-01-30T10:01:28.429Z,12.70
2019-01-30T10:03:57.879Z,13.90
2019-01-30T10:06:27.427Z,16.33
2019-01-30T10:08:56.996Z,16.97
2019-01-30T10:11:26.403Z,14.33
2019-01-30T10:13:55.764Z,18.13
2019-01-30T10:16:25.214Z,14.77
2019-01-30T10:18:54.708Z,14.23
2019-01-30T10:21:24.548Z,12.77
2019-01-30T10:23:53.980Z,13.40
2019-01-30T10:26:23.438Z,17.80
2019-01-30T10:28:53.296Z,15.17
2019-01-30T10:31:22.684Z,13.13
2019-01-30T10:33:52.096Z,14.63
2019-01-30T10:36:21.554Z,13.83
2019-01-30T10:38:50.981Z,17.43
2019-01-30T10:41:20.430Z,14.30
2019-01-30T10:43:49.892Z,15.30
2019-01-30T10:46:19.439Z,14.90
2019-01-30T10:48:48.954Z,14.53
2019-01-30T10:51:18.499Z,12.97
2019-01-30T10:53:48.284Z,12.30
2019-01-30T10:56:18.273Z,14.10
2019-01-30T10:58:47.709Z,11.77
2019-01-30T11:01:17.618Z,14.00
2019-01-30T11:03:56.788Z,14.80
2019-01-30T11:06:18.418Z,16.20
2019-01-30T11:08:48.058Z,12.07
2019-01-30T11:11:17.531Z,14.20
2019-01-30T11:13:46.989Z,12.03
2019-01-30T11:16:16.648Z,12.73
2019-01-30T11:18:46.074Z,10.80
2019-01-30T11:21:15.592Z,13.20
2019-01-30T11:23:45.164Z,12.40
2019-01-30T11:26:14.606Z,10.47
2019-01-30T11:28:55.540Z,12.17
2019-01-30T11:31:25.097Z,12.17
2019-01-30T11:33:54.470Z,13.20
2019-01-30T11:36:24.266Z,11.13
2019-01-30T11:38:53.656Z,12.17
2019-01-30T11:41:23.142Z,10.87
2019-01-30T11:43:52.627Z,10.80
2019-01-30T11:46:22.180Z,9.40
2019-01-30T11:48:56.482Z,11.27
2019-01-30T11:51:22.686Z,11.90
2019-01-30T11:53:52.177Z,9.67
2019-01-30T11:56:21.840Z,11.30
2019-01-30T11:58:51.286Z,10.30
2019-01-30T12:01:21.054Z,11.13
2019-01-30T12:03:50.480Z,9.87
2019-01-30T12:06:19.879Z,13.63
2019-01-30T12:08:49.368Z,10.70
2019-01-30T12:11:18.803Z,10.13
2019-01-30T12:13:48.178Z,11.43
2019-01-30T12:16:17.634Z,10.60
2019-01-30T12:18:47.471Z,10.20
2019-01-30T12:21:16.918Z,10.07
2019-01-30T12:23:46.716Z,9.17
2019-01-30T12:26:16.544Z,10.93
2019-01-30T12:28:45.961Z,10.37
2019-01-30T12:31:15.440Z,10.10
2019-01-30T12:33:44.982Z,9.23
2019-01-30T12:36:14.424Z,9.87
2019-01-30T12:38:44.020Z,10.47
2019-01-30T12:41:13.498Z,11.03
2019-01-30T12:43:45.242Z,11.97
2019-01-30T12:46:14.096Z,10.60
2019-01-30T12:48:43.896Z,12.23
2019-01-30T12:51:13.428Z,10.10
2019-01-30T12:53:43.242Z,9.47
2019-01-30T12:56:12.741Z,9.73
2019-01-30T12:58:42.174Z,8.00
2019-01-30T13:01:11.829Z,10.50
2019-01-30T13:03:41.264Z,8.57
2019-01-30T13:06:10.711Z,10.50
2019-01-30T13:08:40.448Z,9.30
2019-01-30T13:11:09.932Z,9.07
2019-01-30T13:13:39.431Z,12.67
2019-01-30T13:16:09.210Z,8.93
2019-01-30T13:18:39.086Z,9.83
2019-01-30T13:21:08.947Z,9.03
2019-01-30T13:23:38.390Z,11.27
2019-01-30T13:26:08.653Z,8.77
2019-01-30T13:28:38.134Z,10.03
2019-01-30T13:31:07.606Z,11.30
2019-01-30T13:33:37.488Z,8.93
2019-01-30T13:36:08.320Z,8.10
2019-01-30T13:38:37.814Z,9.33
2019-01-30T13:41:07.237Z,10.23
2019-01-30T13:43:36.811Z,12.57
2019-01-30T13:46:06.790Z,7.93
2019-01-30T13:48:36.705Z,8.40
2019-01-30T13:51:06.299Z,9.43
2019-01-30T13:53:37.317Z,8.47
2019-01-30T13:56:06.857Z,9.27
2019-01-30T13:58:36.349Z,11.27
2019-01-30T14:01:05.791Z,9.40
2019-01-30T14:03:35.601Z,8.50
2019-01-30T14:06:05.292Z,10.23
2019-01-30T14:08:34.862Z,9.57
2019-01-30T14:11:04.327Z,8.00
2019-01-30T14:13:33.907Z,10.47
2019-01-30T14:16:03.693Z,9.63
2019-01-30T14:18:33.112Z,9.70
2019-01-30T14:21:02.869Z,10.57
2019-01-30T14:23:32.385Z,11.20
2019-01-30T14:26:01.824Z,9.13
2019-01-30T14:28:31.309Z,10.47
2019-01-30T14:31:00.916Z,17.93
2019-01-30T14:33:30.340Z,10.07
2019-01-30T14:36:00.017Z,9.30
2019-01-30T14:38:29.511Z,10.80
2019-01-30T14:40:58.934Z,11.13
2019-01-30T14:43:28.522Z,10.20
2019-01-30T14:45:58.409Z,9.10
2019-01-30T14:48:28.244Z,9.87
2019-01-30T14:50:57.699Z,11.40
2019-01-30T14:53:27.139Z,9.43
2019-01-30T14:55:56.580Z,9.87
2019-01-30T14:58:26.057Z,8.93
2019-01-30T15:00:55.496Z,9.67
2019-01-30T15:03:25.019Z,9.97
2019-01-30T15:05:54.383Z,11.60
2019-01-30T15:08:23.900Z,11.00
2019-01-30T15:10:53.387Z,11.27
2019-01-30T15:13:22.962Z,10.83
2019-01-30T15:15:52.495Z,11.93
2019-01-30T15:18:22.022Z,11.90
2019-01-30T15:20:51.612Z,11.60
2019-01-30T15:23:20.995Z,11.23
2019-01-30T15:25:50.692Z,12.27
2019-01-30T15:28:20.095Z,12.90
2019-01-30T15:30:50.114Z,9.93
2019-01-30T15:33:19.976Z,9.73
2019-01-30T15:35:49.462Z,9.53
2019-01-30T15:38:20.885Z,9.67
2019-01-30T15:40:50.535Z,10.93
2019-01-30T15:43:19.986Z,8.67
2019-01-30T15:45:49.471Z,10.23
2019-01-30T15:48:18.815Z,10.33
2019-01-30T15:50:48.361Z,8.83
2019-01-30T15:53:22.737Z,8.97
2019-01-30T15:55:52.357Z,9.10
2019-01-30T15:58:21.830Z,9.00
2019-01-30T16:01:18.522Z,14.83
2019-01-30T16:03:48.398Z,13.27
2019-01-30T16:06:17.841Z,11.93
2019-01-30T16:08:47.311Z,12.17
2019-01-30T16:11:16.904Z,11.07
2019-01-30T16:13:46.362Z,10.40
2019-01-30T16:16:15.805Z,12.80
2019-01-30T16:18:45.257Z,11.80
2019-01-30T16:21:14.698Z,11.37
2019-01-30T16:23:44.316Z,12.23
2019-01-30T16:26:13.787Z,10.77
2019-01-30T16:28:43.307Z,13.67
2019-01-30T16:31:12.717Z,14.63
2019-01-30T16:33:42.292Z,10.87
2019-01-30T16:36:12.077Z,13.60
2019-01-30T16:38:41.516Z,10.13
2019-01-30T16:41:10.940Z,13.47
2019-01-30T16:43:40.582Z,13.20
2019-01-30T16:46:09.946Z,14.87
2019-01-30T16:48:39.735Z,13.77
2019-01-30T16:51:09.228Z,16.67
2019-01-30T16:53:38.697Z,13.00
2019-01-30T16:56:08.152Z,12.73
2019-01-30T16:58:37.577Z,13.97
2019-01-30T17:01:07.463Z,11.73
2019-01-30T17:03:37.005Z,13.03
2019-01-30T17:06:07.882Z,13.13
2019-01-30T17:08:37.453Z,12.57
2019-01-30T17:11:07.065Z,14.57
2019-01-30T17:13:36.655Z,14.83
2019-01-30T17:16:06.161Z,12.80
2019-01-30T17:18:35.730Z,13.00
2019-01-30T17:21:05.281Z,14.40
2019-01-30T17:23:34.942Z,11.83
2019-01-30T17:26:05.727Z,14.13
2019-01-30T17:28:35.178Z,12.30
2019-01-30T17:31:11.215Z,13.47
2019-01-30T17:33:41.047Z,13.47
2019-01-30T17:36:18.115Z,13.90
2019-01-30T17:38:41.664Z,12.77
2019-01-30T17:41:11.155Z,14.03
2019-01-30T17:43:40.557Z,15.33
2019-01-30T17:46:10.392Z,14.73
2019-01-30T17:48:39.812Z,13.23
2019-01-30T17:51:09.320Z,12.93
2019-01-30T17:53:38.792Z,14.67
2019-01-30T17:56:08.249Z,13.43
2019-01-30T17:58:37.813Z,13.53
2019-01-30T18:01:07.293Z,14.53
2019-01-30T18:03:36.797Z,13.30
2019-01-30T18:06:06.567Z,13.90
2019-01-30T18:08:36.396Z,15.33
2019-01-30T18:11:05.870Z,17.80
2019-01-30T18:13:35.845Z,20.47
2019-01-30T18:16:05.682Z,19.37
2019-01-30T18:18:35.163Z,17.67
2019-01-30T18:21:04.953Z,17.90
2019-01-30T18:23:34.545Z,21.03
2019-01-30T18:26:04.975Z,18.30
2019-01-30T18:28:34.478Z,20.80
2019-01-30T18:31:04.309Z,21.80
2019-01-30T18:33:33.813Z,19.47
2019-01-30T18:36:03.221Z,21.20
2019-01-30T18:38:32.681Z,19.67
2019-01-30T18:41:02.545Z,19.17
2019-01-30T18:43:31.965Z,19.80
2019-01-30T18:46:01.444Z,21.60
2019-01-30T18:48:30.903Z,17.87
2019-01-30T18:51:01.207Z,17.43
2019-01-30T18:53:30.779Z,23.47
2019-01-30T18:56:01.159Z,20.60
2019-01-30T18:58:30.662Z,21.20
2019-01-30T19:01:00.304Z,23.97
2019-01-30T19:03:30.049Z,20.07
2019-01-30T19:05:59.515Z,21.40
2019-01-30T19:08:31.313Z,22.17
2019-01-30T19:11:00.498Z,21.87
2019-01-30T19:13:30.337Z,20.07
2019-01-30T19:15:59.793Z,21.13
2019-01-30T19:18:29.994Z,19.30
2019-01-30T19:20:59.809Z,23.13
2019-01-30T19:23:29.241Z,18.83
2019-01-30T19:25:59.137Z,20.27
2019-01-30T19:28:28.579Z,23.23
2019-01-30T19:30:58.005Z,20.83
2019-01-30T19:33:27.417Z,19.37
2019-01-30T19:35:57.276Z,19.93
2019-01-30T19:38:27.125Z,19.20
2019-01-30T19:40:56.587Z,25.53
2019-01-30T19:43:25.993Z,23.03
2019-01-30T19:45:55.526Z,18.70
2019-01-30T19:48:25.002Z,20.30
2019-01-30T19:50:54.678Z,24.83
2019-01-30T19:53:24.167Z,17.93
2019-01-30T19:55:53.669Z,18.10
2019-01-30T19:58:23.658Z,21.30
2019-01-30T20:00:53.213Z,20.60
2019-01-30T20:03:24.823Z,18.63
2019-01-30T20:05:54.724Z,21.73
2019-01-30T20:08:24.138Z,23.93
2019-01-30T20:10:53.628Z,20.83
2019-01-30T20:13:23.511Z,19.87
2019-01-30T20:15:53.297Z,20.00
2019-01-30T20:18:22.761Z,18.80
2019-01-30T20:20:52.279Z,21.97
2019-01-30T20:23:21.660Z,22.17
2019-01-30T20:25:51.262Z,22.83
2019-01-30T20:28:20.777Z,25.97
2019-01-30T20:30:50.397Z,30.23
2019-01-30T20:33:19.934Z,20.70
2019-01-30T20:35:49.516Z,22.47
2019-01-30T20:38:18.955Z,25.83
2019-01-30T20:40:48.695Z,22.40
2019-01-30T20:43:18.184Z,20.63
2019-01-30T20:45:47.661Z,21.80
2019-01-30T20:48:17.702Z,23.10
2019-01-30T20:50:47.712Z,32.13
2019-01-30T20:53:17.224Z,28.07
2019-01-30T20:55:46.608Z,22.80
2019-01-30T20:58:16.535Z,27.60
2019-01-30T21:00:46.749Z,21.70
2019-01-30T21:03:16.507Z,21.40
2019-01-30T21:05:45.907Z,23.93
2019-01-30T21:08:15.724Z,25.30
2019-01-30T21:10:45.244Z,23.67
2019-01-30T21:13:14.669Z,21.37
2019-01-30T21:15:44.404Z,21.77
2019-01-30T21:18:13.859Z,23.90
2019-01-30T21:20:43.307Z,22.37
2019-01-30T21:23:13.318Z,23.00
2019-01-30T21:25:42.815Z,25.43
2019-01-30T21:28:12.221Z,29.43
2019-01-30T21:30:41.686Z,26.40
2019-01-30T21:33:11.216Z,25.10
2019-01-30T21:35:41.165Z,25.70
2019-01-30T21:38:10.553Z,23.43
2019-01-30T21:40:39.994Z,21.10
2019-01-30T21:43:09.689Z,22.70
2019-01-30T21:45:39.129Z,23.73
2019-01-30T21:48:08.987Z,25.53
2019-01-30T21:50:38.414Z,24.97
2019-01-30T21:53:08.290Z,24.20
2019-01-30T21:55:37.682Z,21.30
2019-01-30T21:58:07.659Z,24.40
2019-01-30T22:00:37.188Z,23.77
2019-01-30T22:03:06.632Z,23.77
2019-01-30T22:05:36.120Z,21.20
2019-01-30T22:08:06.128Z,21.57
2019-01-30T22:10:35.561Z,22.93
2019-01-30T22:13:05.664Z,27.23
2019-01-30T22:15:35.237Z,24.73
2019-01-30T22:18:05.248Z,24.90
2019-01-30T22:20:35.460Z,27.77
2019-01-30T22:23:05.947Z,24.17
2019-01-30T22:25:35.442Z,27.97
2019-01-30T22:28:05.534Z,24.77
2019-01-30T22:30:35.963Z,27.90
2019-01-30T22:33:06.728Z,28.33
2019-01-30T22:35:36.516Z,24.77
2019-01-30T22:38:12.563Z,24.53
2019-01-30T22:40:37.952Z,26.03
2019-01-30T22:43:07.357Z,24.57
2019-01-30T22:45:36.816Z,25.43
2019-01-30T22:48:06.862Z,29.93
2019-01-30T22:50:36.736Z,27.30
2019-01-30T22:53:06.289Z,24.30
2019-01-30T22:55:35.721Z,28.40
2019-01-30T22:58:05.534Z,31.70
2019-01-30T23:01:13.830Z,32.57
2019-01-30T23:04:10.576Z,30.73
2019-01-30T23:07:03.099Z,29.47
2019-01-30T23:10:08.302Z,33.57
2019-01-30T23:13:02.745Z,33.07
2019-01-30T23:16:03.196Z,32.63
2019-01-30T23:18:49.912Z,33.80
2019-01-30T23:21:24.552Z,36.17
2019-01-30T23:24:36.651Z,36.37
2019-01-30T23:27:43.338Z,33.90
2019-01-30T23:30:41.640Z,33.63
2019-01-30T23:34:19.298Z,35.83
2019-01-30T23:37:18.648Z,31.93
2019-01-30T23:40:17.277Z,36.03
2019-01-30T23:43:12.408Z,34.30
2019-01-30T23:45:55.427Z,33.10
2019-01-30T23:49:00.012Z,39.07
2019-01-30T23:52:05.524Z,33.27
2019-01-30T23:54:49.173Z,31.83
2019-01-30T23:57:56.695Z,35.10
